sensor_id;sensor_type;location;lat;lon;timestamp;P1;durP1;ratioP1;P2;durP2;ratioP2
79130;SDS011;72396;45.194;9.142;2023-12-20T00:01:26;23.83;;;12.65;;
79130;SDS011;72396;45.194;9.142;2023-12-20T00:03:51;21.25;;;13.25;;
79130;SDS011;72396;45.194;9.142;2023-12-20T00:06:16;20.42;;;12.20;;
79130;SDS011;72396;45.194;9.142;2023-12-20T00:08:42;23.45;;;13.65;;
79130;SDS011;72396;45.194;9.142;2023-12-20T00:11:07;21.35;;;13.13;;
79130;SDS011;72396;45.194;9.142;2023-12-20T00:13:32;25.08;;;13.13;;
79130;SDS011;72396;45.194;9.142;2023-12-20T00:15:58;24.17;;;14.13;;
79130;SDS011;72396;45.194;9.142;2023-12-20T00:18:23;26.50;;;14.05;;
79130;SDS011;72396;45.194;9.142;2023-12-20T00:20:48;21.48;;;12.60;;
79130;SDS011;72396;45.194;9.142;2023-12-20T00:23:14;19.08;;;12.05;;
79130;SDS011;72396;45.194;9.142;2023-12-20T00:25:39;20.33;;;12.18;;
79130;SDS011;72396;45.194;9.142;2023-12-20T00:28:05;22.02;;;12.88;;
79130;SDS011;72396;45.194;9.142;2023-12-20T00:30:31;22.20;;;13.60;;
79130;SDS011;72396;45.194;9.142;2023-12-20T00:32:56;25.63;;;13.45;;
79130;SDS011;72396;45.194;9.142;2023-12-20T00:35:21;24.60;;;14.48;;
79130;SDS011;72396;45.194;9.142;2023-12-20T00:37:47;22.80;;;13.73;;
79130;SDS011;72396;45.194;9.142;2023-12-20T00:40:12;21.45;;;13.65;;
79130;SDS011;72396;45.194;9.142;2023-12-20T00:42:38;24.90;;;13.95;;
79130;SDS011;72396;45.194;9.142;2023-12-20T00:45:03;23.35;;;14.23;;
79130;SDS011;72396;45.194;9.142;2023-12-20T00:47:30;20.48;;;14.20;;
79130;SDS011;72396;45.194;9.142;2023-12-20T00:49:55;22.98;;;14.38;;
79130;SDS011;72396;45.194;9.142;2023-12-20T00:52:21;22.27;;;13.90;;
79130;SDS011;72396;45.194;9.142;2023-12-20T00:54:47;22.83;;;13.48;;
79130;SDS011;72396;45.194;9.142;2023-12-20T00:57:13;24.30;;;13.70;;
79130;SDS011;72396;45.194;9.142;2023-12-20T00:59:39;22.65;;;12.63;;
79130;SDS011;72396;45.194;9.142;2023-12-20T01:02:04;24.45;;;13.95;;
79130;SDS011;72396;45.194;9.142;2023-12-20T01:04:30;21.73;;;13.20;;
79130;SDS011;72396;45.194;9.142;2023-12-20T01:06:55;20.35;;;11.75;;
79130;SDS011;72396;45.194;9.142;2023-12-20T01:09:20;25.45;;;13.70;;
79130;SDS011;72396;45.194;9.142;2023-12-20T01:11:48;20.83;;;12.48;;
79130;SDS011;72396;45.194;9.142;2023-12-20T01:14:14;20.45;;;12.10;;
79130;SDS011;72396;45.194;9.142;2023-12-20T01:16:39;21.00;;;12.82;;
79130;SDS011;72396;45.194;9.142;2023-12-20T01:19:05;21.02;;;12.68;;
79130;SDS011;72396;45.194;9.142;2023-12-20T01:21:30;20.08;;;12.65;;
79130;SDS011;72396;45.194;9.142;2023-12-20T01:23:55;20.23;;;13.43;;
79130;SDS011;72396;45.194;9.142;2023-12-20T01:26:21;19.23;;;12.10;;
79130;SDS011;72396;45.194;9.142;2023-12-20T01:28:46;23.67;;;13.00;;
79130;SDS011;72396;45.194;9.142;2023-12-20T01:31:12;18.35;;;11.43;;
79130;SDS011;72396;45.194;9.142;2023-12-20T01:33:37;21.52;;;12.00;;
79130;SDS011;72396;45.194;9.142;2023-12-20T01:36:03;21.60;;;13.30;;
79130;SDS011;72396;45.194;9.142;2023-12-20T01:38:28;21.88;;;12.77;;
79130;SDS011;72396;45.194;9.142;2023-12-20T01:40:54;20.77;;;12.38;;
79130;SDS011;72396;45.194;9.142;2023-12-20T01:43:19;21.95;;;12.93;;
79130;SDS011;72396;45.194;9.142;2023-12-20T01:45:44;20.48;;;12.98;;
79130;SDS011;72396;45.194;9.142;2023-12-20T01:48:11;20.00;;;11.43;;
79130;SDS011;72396;45.194;9.142;2023-12-20T01:50:36;23.15;;;12.32;;
79130;SDS011;72396;45.194;9.142;2023-12-20T01:53:03;19.90;;;11.57;;
79130;SDS011;72396;45.194;9.142;2023-12-20T01:55:31;19.88;;;11.95;;
79130;SDS011;72396;45.194;9.142;2023-12-20T01:57:59;22.25;;;12.38;;
79130;SDS011;72396;45.194;9.142;2023-12-20T02:00:26;20.98;;;13.00;;
79130;SDS011;72396;45.194;9.142;2023-12-20T02:02:53;22.42;;;12.98;;
79130;SDS011;72396;45.194;9.142;2023-12-20T02:05:22;22.70;;;13.20;;
79130;SDS011;72396;45.194;9.142;2023-12-20T02:07:48;19.08;;;12.73;;
79130;SDS011;72396;45.194;9.142;2023-12-20T02:10:14;20.20;;;12.68;;
79130;SDS011;72396;45.194;9.142;2023-12-20T02:12:40;18.60;;;11.82;;
79130;SDS011;72396;45.194;9.142;2023-12-20T02:15:06;22.00;;;12.85;;
79130;SDS011;72396;45.194;9.142;2023-12-20T02:17:32;18.63;;;11.55;;
79130;SDS011;72396;45.194;9.142;2023-12-20T02:19:57;21.05;;;12.20;;
79130;SDS011;72396;45.194;9.142;2023-12-20T02:22:23;27.25;;;12.68;;
79130;SDS011;72396;45.194;9.142;2023-12-20T02:24:48;18.35;;;12.40;;
79130;SDS011;72396;45.194;9.142;2023-12-20T02:27:13;18.98;;;12.38;;
79130;SDS011;72396;45.194;9.142;2023-12-20T02:29:42;20.65;;;12.73;;
79130;SDS011;72396;45.194;9.142;2023-12-20T02:32:08;19.00;;;11.43;;
79130;SDS011;72396;45.194;9.142;2023-12-20T02:34:33;24.00;;;13.57;;
79130;SDS011;72396;45.194;9.142;2023-12-20T02:36:59;17.20;;;12.65;;
79130;SDS011;72396;45.194;9.142;2023-12-20T02:39:24;21.20;;;12.55;;
79130;SDS011;72396;45.194;9.142;2023-12-20T02:41:49;19.00;;;12.90;;
79130;SDS011;72396;45.194;9.142;2023-12-20T02:44:15;21.80;;;13.95;;
79130;SDS011;72396;45.194;9.142;2023-12-20T02:46:40;24.52;;;13.60;;
79130;SDS011;72396;45.194;9.142;2023-12-20T02:49:06;22.23;;;13.57;;
79130;SDS011;72396;45.194;9.142;2023-12-20T02:51:31;23.83;;;14.10;;
79130;SDS011;72396;45.194;9.142;2023-12-20T02:53:57;28.13;;;14.45;;
79130;SDS011;72396;45.194;9.142;2023-12-20T02:56:22;21.02;;;12.88;;
79130;SDS011;72396;45.194;9.142;2023-12-20T02:58:47;20.27;;;12.75;;
79130;SDS011;72396;45.194;9.142;2023-12-20T03:01:12;21.35;;;12.80;;
79130;SDS011;72396;45.194;9.142;2023-12-20T03:03:38;19.98;;;14.05;;
79130;SDS011;72396;45.194;9.142;2023-12-20T03:06:03;19.88;;;13.75;;
79130;SDS011;72396;45.194;9.142;2023-12-20T03:08:28;20.90;;;13.50;;
79130;SDS011;72396;45.194;9.142;2023-12-20T03:10:54;23.45;;;13.85;;
79130;SDS011;72396;45.194;9.142;2023-12-20T03:13:19;24.35;;;13.95;;
79130;SDS011;72396;45.194;9.142;2023-12-20T03:15:45;23.05;;;14.52;;
79130;SDS011;72396;45.194;9.142;2023-12-20T03:18:10;27.15;;;13.90;;
79130;SDS011;72396;45.194;9.142;2023-12-20T03:20:36;23.73;;;14.40;;
79130;SDS011;72396;45.194;9.142;2023-12-20T03:23:01;24.42;;;13.88;;
79130;SDS011;72396;45.194;9.142;2023-12-20T03:25:26;26.50;;;14.60;;
79130;SDS011;72396;45.194;9.142;2023-12-20T03:27:52;20.55;;;13.95;;
79130;SDS011;72396;45.194;9.142;2023-12-20T03:30:18;25.17;;;14.48;;
79130;SDS011;72396;45.194;9.142;2023-12-20T03:32:43;23.00;;;13.85;;
79130;SDS011;72396;45.194;9.142;2023-12-20T03:35:09;23.95;;;15.10;;
79130;SDS011;72396;45.194;9.142;2023-12-20T03:37:35;26.10;;;15.73;;
79130;SDS011;72396;45.194;9.142;2023-12-20T03:40:00;24.80;;;15.05;;
79130;SDS011;72396;45.194;9.142;2023-12-20T03:42:26;25.92;;;14.95;;
79130;SDS011;72396;45.194;9.142;2023-12-20T03:44:51;24.48;;;14.82;;
79130;SDS011;72396;45.194;9.142;2023-12-20T03:47:16;28.02;;;14.95;;
79130;SDS011;72396;45.194;9.142;2023-12-20T03:49:42;25.88;;;15.15;;
79130;SDS011;72396;45.194;9.142;2023-12-20T03:52:07;23.73;;;14.38;;
79130;SDS011;72396;45.194;9.142;2023-12-20T03:54:33;23.00;;;13.93;;
79130;SDS011;72396;45.194;9.142;2023-12-20T03:56:59;26.33;;;15.10;;
79130;SDS011;72396;45.194;9.142;2023-12-20T03:59:25;27.75;;;14.82;;
79130;SDS011;72396;45.194;9.142;2023-12-20T04:01:50;25.40;;;15.80;;
79130;SDS011;72396;45.194;9.142;2023-12-20T04:04:15;26.23;;;14.63;;
79130;SDS011;72396;45.194;9.142;2023-12-20T04:06:40;23.10;;;14.35;;
79130;SDS011;72396;45.194;9.142;2023-12-20T04:09:06;26.77;;;14.90;;
79130;SDS011;72396;45.194;9.142;2023-12-20T04:11:34;22.45;;;14.10;;
79130;SDS011;72396;45.194;9.142;2023-12-20T04:13:59;23.52;;;14.65;;
79130;SDS011;72396;45.194;9.142;2023-12-20T04:16:25;26.33;;;15.13;;
79130;SDS011;72396;45.194;9.142;2023-12-20T04:18:51;23.05;;;14.13;;
79130;SDS011;72396;45.194;9.142;2023-12-20T04:21:16;26.33;;;15.13;;
79130;SDS011;72396;45.194;9.142;2023-12-20T04:23:41;26.70;;;14.52;;
79130;SDS011;72396;45.194;9.142;2023-12-20T04:26:07;25.50;;;16.00;;
79130;SDS011;72396;45.194;9.142;2023-12-20T04:28:32;22.30;;;14.55;;
79130;SDS011;72396;45.194;9.142;2023-12-20T04:30:57;22.83;;;14.07;;
79130;SDS011;72396;45.194;9.142;2023-12-20T04:33:23;23.88;;;14.55;;
79130;SDS011;72396;45.194;9.142;2023-12-20T04:35:48;24.83;;;14.63;;
79130;SDS011;72396;45.194;9.142;2023-12-20T04:38:13;25.40;;;14.80;;
79130;SDS011;72396;45.194;9.142;2023-12-20T04:40:39;26.00;;;15.80;;
79130;SDS011;72396;45.194;9.142;2023-12-20T04:43:06;24.90;;;15.68;;
79130;SDS011;72396;45.194;9.142;2023-12-20T04:45:31;25.60;;;14.52;;
79130;SDS011;72396;45.194;9.142;2023-12-20T04:47:57;26.10;;;14.70;;
79130;SDS011;72396;45.194;9.142;2023-12-20T04:50:22;23.85;;;14.35;;
79130;SDS011;72396;45.194;9.142;2023-12-20T04:52:48;25.58;;;14.00;;
79130;SDS011;72396;45.194;9.142;2023-12-20T04:55:13;23.40;;;13.88;;
79130;SDS011;72396;45.194;9.142;2023-12-20T04:57:39;20.80;;;14.05;;
79130;SDS011;72396;45.194;9.142;2023-12-20T05:00:04;23.02;;;13.93;;
79130;SDS011;72396;45.194;9.142;2023-12-20T05:02:30;25.38;;;15.43;;
79130;SDS011;72396;45.194;9.142;2023-12-20T05:04:56;25.42;;;14.45;;
79130;SDS011;72396;45.194;9.142;2023-12-20T05:07:21;25.90;;;15.00;;
79130;SDS011;72396;45.194;9.142;2023-12-20T05:09:46;26.73;;;14.65;;
79130;SDS011;72396;45.194;9.142;2023-12-20T05:12:12;27.55;;;14.27;;
79130;SDS011;72396;45.194;9.142;2023-12-20T05:14:37;24.60;;;15.05;;
79130;SDS011;72396;45.194;9.142;2023-12-20T05:17:03;23.15;;;13.65;;
79130;SDS011;72396;45.194;9.142;2023-12-20T05:19:28;27.00;;;15.73;;
79130;SDS011;72396;45.194;9.142;2023-12-20T05:21:54;27.23;;;15.43;;
79130;SDS011;72396;45.194;9.142;2023-12-20T05:24:19;24.02;;;15.27;;
79130;SDS011;72396;45.194;9.142;2023-12-20T05:26:44;23.42;;;14.13;;
79130;SDS011;72396;45.194;9.142;2023-12-20T05:29:10;23.05;;;15.60;;
79130;SDS011;72396;45.194;9.142;2023-12-20T05:31:35;21.50;;;13.20;;
79130;SDS011;72396;45.194;9.142;2023-12-20T05:34:00;24.58;;;15.05;;
79130;SDS011;72396;45.194;9.142;2023-12-20T05:36:26;24.00;;;14.48;;
79130;SDS011;72396;45.194;9.142;2023-12-20T05:38:51;22.33;;;14.73;;
79130;SDS011;72396;45.194;9.142;2023-12-20T05:41:16;22.55;;;14.82;;
79130;SDS011;72396;45.194;9.142;2023-12-20T05:43:42;24.10;;;14.77;;
79130;SDS011;72396;45.194;9.142;2023-12-20T05:46:09;25.50;;;15.13;;
79130;SDS011;72396;45.194;9.142;2023-12-20T05:48:35;26.65;;;15.35;;
79130;SDS011;72396;45.194;9.142;2023-12-20T05:51:00;24.98;;;14.35;;
79130;SDS011;72396;45.194;9.142;2023-12-20T05:53:26;24.58;;;13.95;;
79130;SDS011;72396;45.194;9.142;2023-12-20T05:55:51;22.40;;;14.05;;
79130;SDS011;72396;45.194;9.142;2023-12-20T05:58:16;21.90;;;14.60;;
79130;SDS011;72396;45.194;9.142;2023-12-20T06:00:42;24.98;;;14.75;;
79130;SDS011;72396;45.194;9.142;2023-12-20T06:03:07;24.27;;;15.98;;
79130;SDS011;72396;45.194;9.142;2023-12-20T06:05:32;22.27;;;13.80;;
79130;SDS011;72396;45.194;9.142;2023-12-20T06:07:58;22.02;;;13.95;;
79130;SDS011;72396;45.194;9.142;2023-12-20T06:10:26;26.88;;;14.98;;
79130;SDS011;72396;45.194;9.142;2023-12-20T06:12:52;23.88;;;14.40;;
79130;SDS011;72396;45.194;9.142;2023-12-20T06:15:17;25.30;;;14.07;;
79130;SDS011;72396;45.194;9.142;2023-12-20T06:17:43;27.98;;;15.45;;
79130;SDS011;72396;45.194;9.142;2023-12-20T06:20:09;25.55;;;14.70;;
79130;SDS011;72396;45.194;9.142;2023-12-20T06:22:35;26.25;;;14.60;;
79130;SDS011;72396;45.194;9.142;2023-12-20T06:25:01;23.33;;;14.27;;
79130;SDS011;72396;45.194;9.142;2023-12-20T06:27:28;23.15;;;14.48;;
79130;SDS011;72396;45.194;9.142;2023-12-20T06:29:53;24.77;;;15.38;;
79130;SDS011;72396;45.194;9.142;2023-12-20T06:32:19;23.98;;;14.95;;
79130;SDS011;72396;45.194;9.142;2023-12-20T06:34:44;26.65;;;15.43;;
79130;SDS011;72396;45.194;9.142;2023-12-20T06:37:10;25.67;;;15.25;;
79130;SDS011;72396;45.194;9.142;2023-12-20T06:39:35;22.15;;;14.82;;
79130;SDS011;72396;45.194;9.142;2023-12-20T06:42:00;25.35;;;15.20;;
79130;SDS011;72396;45.194;9.142;2023-12-20T06:44:26;25.05;;;14.50;;
79130;SDS011;72396;45.194;9.142;2023-12-20T06:46:51;27.75;;;15.15;;
79130;SDS011;72396;45.194;9.142;2023-12-20T06:49:17;25.88;;;15.65;;
79130;SDS011;72396;45.194;9.142;2023-12-20T06:51:43;25.50;;;15.85;;
79130;SDS011;72396;45.194;9.142;2023-12-20T06:54:09;26.80;;;15.30;;
79130;SDS011;72396;45.194;9.142;2023-12-20T06:56:34;22.83;;;14.82;;
79130;SDS011;72396;45.194;9.142;2023-12-20T06:59:00;24.20;;;14.60;;
79130;SDS011;72396;45.194;9.142;2023-12-20T07:01:25;23.45;;;14.57;;
79130;SDS011;72396;45.194;9.142;2023-12-20T07:03:50;23.83;;;14.48;;
79130;SDS011;72396;45.194;9.142;2023-12-20T07:06:16;24.70;;;15.00;;
79130;SDS011;72396;45.194;9.142;2023-12-20T07:08:42;26.30;;;15.95;;
79130;SDS011;72396;45.194;9.142;2023-12-20T07:11:07;24.02;;;14.90;;
79130;SDS011;72396;45.194;9.142;2023-12-20T07:13:33;26.55;;;15.10;;
79130;SDS011;72396;45.194;9.142;2023-12-20T07:15:58;22.67;;;14.10;;
79130;SDS011;72396;45.194;9.142;2023-12-20T07:18:24;24.20;;;14.15;;
79130;SDS011;72396;45.194;9.142;2023-12-20T07:20:49;23.42;;;13.98;;
79130;SDS011;72396;45.194;9.142;2023-12-20T07:23:14;23.95;;;14.02;;
79130;SDS011;72396;45.194;9.142;2023-12-20T07:25:40;22.95;;;14.07;;
79130;SDS011;72396;45.194;9.142;2023-12-20T07:28:05;22.52;;;15.10;;
79130;SDS011;72396;45.194;9.142;2023-12-20T07:30:31;24.15;;;14.02;;
79130;SDS011;72396;45.194;9.142;2023-12-20T07:32:56;25.10;;;13.18;;
79130;SDS011;72396;45.194;9.142;2023-12-20T07:35:23;24.67;;;14.13;;
79130;SDS011;72396;45.194;9.142;2023-12-20T07:37:48;23.88;;;14.20;;
79130;SDS011;72396;45.194;9.142;2023-12-20T07:40:14;19.25;;;12.70;;
79130;SDS011;72396;45.194;9.142;2023-12-20T07:42:41;23.13;;;14.25;;
79130;SDS011;72396;45.194;9.142;2023-12-20T07:45:07;21.58;;;13.30;;
79130;SDS011;72396;45.194;9.142;2023-12-20T07:47:32;24.55;;;14.10;;
79130;SDS011;72396;45.194;9.142;2023-12-20T07:49:58;24.45;;;13.60;;
79130;SDS011;72396;45.194;9.142;2023-12-20T07:52:24;21.63;;;13.48;;
79130;SDS011;72396;45.194;9.142;2023-12-20T07:54:50;25.85;;;14.07;;
79130;SDS011;72396;45.194;9.142;2023-12-20T07:57:16;21.50;;;13.90;;
79130;SDS011;72396;45.194;9.142;2023-12-20T07:59:41;21.83;;;13.57;;
79130;SDS011;72396;45.194;9.142;2023-12-20T08:02:06;22.92;;;13.30;;
79130;SDS011;72396;45.194;9.142;2023-12-20T08:04:32;23.00;;;13.68;;
79130;SDS011;72396;45.194;9.142;2023-12-20T08:06:57;22.15;;;13.38;;
79130;SDS011;72396;45.194;9.142;2023-12-20T08:09:23;23.60;;;13.18;;
79130;SDS011;72396;45.194;9.142;2023-12-20T08:11:49;20.27;;;12.95;;
79130;SDS011;72396;45.194;9.142;2023-12-20T08:14:15;22.17;;;13.57;;
79130;SDS011;72396;45.194;9.142;2023-12-20T08:16:40;21.33;;;12.45;;
79130;SDS011;72396;45.194;9.142;2023-12-20T08:19:06;20.48;;;12.68;;
79130;SDS011;72396;45.194;9.142;2023-12-20T08:21:31;21.38;;;13.15;;
79130;SDS011;72396;45.194;9.142;2023-12-20T08:23:56;25.42;;;13.35;;
79130;SDS011;72396;45.194;9.142;2023-12-20T08:26:22;19.65;;;12.15;;
79130;SDS011;72396;45.194;9.142;2023-12-20T08:28:49;22.30;;;12.95;;
79130;SDS011;72396;45.194;9.142;2023-12-20T08:31:15;21.13;;;12.30;;
79130;SDS011;72396;45.194;9.142;2023-12-20T08:33:41;23.10;;;12.25;;
79130;SDS011;72396;45.194;9.142;2023-12-20T08:36:08;22.20;;;12.27;;
79130;SDS011;72396;45.194;9.142;2023-12-20T08:38:34;19.15;;;10.90;;
79130;SDS011;72396;45.194;9.142;2023-12-20T08:40:59;19.17;;;12.00;;
79130;SDS011;72396;45.194;9.142;2023-12-20T08:43:24;20.83;;;12.15;;
79130;SDS011;72396;45.194;9.142;2023-12-20T08:45:50;20.60;;;12.02;;
79130;SDS011;72396;45.194;9.142;2023-12-20T08:48:15;19.48;;;11.82;;
79130;SDS011;72396;45.194;9.142;2023-12-20T08:50:40;17.58;;;12.48;;
79130;SDS011;72396;45.194;9.142;2023-12-20T08:53:06;19.02;;;12.73;;
79130;SDS011;72396;45.194;9.142;2023-12-20T08:55:31;20.98;;;13.20;;
79130;SDS011;72396;45.194;9.142;2023-12-20T08:57:57;21.88;;;12.57;;
79130;SDS011;72396;45.194;9.142;2023-12-20T09:00:22;20.15;;;10.70;;
79130;SDS011;72396;45.194;9.142;2023-12-20T09:02:50;20.27;;;12.48;;
79130;SDS011;72396;45.194;9.142;2023-12-20T09:05:16;19.02;;;11.35;;
79130;SDS011;72396;45.194;9.142;2023-12-20T09:07:41;22.98;;;12.43;;
79130;SDS011;72396;45.194;9.142;2023-12-20T09:10:07;21.25;;;12.27;;
79130;SDS011;72396;45.194;9.142;2023-12-20T09:12:32;20.10;;;12.93;;
79130;SDS011;72396;45.194;9.142;2023-12-20T09:14:57;21.20;;;12.35;;
79130;SDS011;72396;45.194;9.142;2023-12-20T09:17:23;20.98;;;12.50;;
79130;SDS011;72396;45.194;9.142;2023-12-20T09:19:49;23.15;;;13.40;;
79130;SDS011;72396;45.194;9.142;2023-12-20T09:22:17;20.58;;;12.82;;
79130;SDS011;72396;45.194;9.142;2023-12-20T09:24:43;19.98;;;11.65;;
79130;SDS011;72396;45.194;9.142;2023-12-20T09:27:08;17.42;;;11.43;;
79130;SDS011;72396;45.194;9.142;2023-12-20T09:29:33;19.50;;;11.90;;
79130;SDS011;72396;45.194;9.142;2023-12-20T09:31:59;20.70;;;12.27;;
79130;SDS011;72396;45.194;9.142;2023-12-20T09:34:24;19.05;;;12.60;;
79130;SDS011;72396;45.194;9.142;2023-12-20T09:36:50;22.52;;;12.77;;
79130;SDS011;72396;45.194;9.142;2023-12-20T09:39:16;20.88;;;13.52;;
79130;SDS011;72396;45.194;9.142;2023-12-20T09:42:05;25.17;;;13.48;;
79130;SDS011;72396;45.194;9.142;2023-12-20T09:44:31;17.30;;;12.40;;
79130;SDS011;72396;45.194;9.142;2023-12-20T09:46:58;24.67;;;14.13;;
79130;SDS011;72396;45.194;9.142;2023-12-20T09:49:23;23.90;;;13.32;;
79130;SDS011;72396;45.194;9.142;2023-12-20T09:51:55;24.20;;;15.00;;
79130;SDS011;72396;45.194;9.142;2023-12-20T09:54:21;27.50;;;17.23;;
79130;SDS011;72396;45.194;9.142;2023-12-20T09:56:47;28.38;;;16.25;;
79130;SDS011;72396;45.194;9.142;2023-12-20T09:59:13;27.67;;;15.30;;
79130;SDS011;72396;45.194;9.142;2023-12-20T10:01:39;26.08;;;13.93;;
79130;SDS011;72396;45.194;9.142;2023-12-20T10:04:07;24.88;;;13.50;;
79130;SDS011;72396;45.194;9.142;2023-12-20T10:06:43;24.20;;;14.27;;
79130;SDS011;72396;45.194;9.142;2023-12-20T10:09:09;22.92;;;13.20;;
79130;SDS011;72396;45.194;9.142;2023-12-20T10:11:38;19.25;;;13.07;;
79130;SDS011;72396;45.194;9.142;2023-12-20T10:14:04;22.10;;;14.13;;
79130;SDS011;72396;45.194;9.142;2023-12-20T10:16:31;29.92;;;14.15;;
79130;SDS011;72396;45.194;9.142;2023-12-20T10:18:57;21.52;;;14.07;;
79130;SDS011;72396;45.194;9.142;2023-12-20T10:21:23;26.10;;;14.05;;
79130;SDS011;72396;45.194;9.142;2023-12-20T10:23:51;25.55;;;14.82;;
79130;SDS011;72396;45.194;9.142;2023-12-20T10:26:20;23.02;;;15.90;;
79130;SDS011;72396;45.194;9.142;2023-12-20T10:28:50;25.85;;;14.73;;
79130;SDS011;72396;45.194;9.142;2023-12-20T10:31:26;24.02;;;15.57;;
79130;SDS011;72396;45.194;9.142;2023-12-20T10:33:52;24.15;;;15.07;;
79130;SDS011;72396;45.194;9.142;2023-12-20T10:36:18;27.55;;;16.20;;
79130;SDS011;72396;45.194;9.142;2023-12-20T10:38:43;25.50;;;14.85;;
79130;SDS011;72396;45.194;9.142;2023-12-20T10:41:09;28.88;;;16.30;;
79130;SDS011;72396;45.194;9.142;2023-12-20T10:43:35;28.23;;;14.55;;
79130;SDS011;72396;45.194;9.142;2023-12-20T10:46:03;24.02;;;14.70;;
79130;SDS011;72396;45.194;9.142;2023-12-20T10:48:28;26.85;;;16.10;;
79130;SDS011;72396;45.194;9.142;2023-12-20T10:50:56;24.73;;;16.38;;
79130;SDS011;72396;45.194;9.142;2023-12-20T10:53:23;24.55;;;15.48;;
79130;SDS011;72396;45.194;9.142;2023-12-20T10:55:50;27.05;;;16.92;;
79130;SDS011;72396;45.194;9.142;2023-12-20T10:58:20;29.65;;;16.10;;
79130;SDS011;72396;45.194;9.142;2023-12-20T11:00:47;25.13;;;15.07;;
79130;SDS011;72396;45.194;9.142;2023-12-20T11:03:21;27.13;;;16.35;;
79130;SDS011;72396;45.194;9.142;2023-12-20T11:05:54;30.85;;;16.33;;
79130;SDS011;72396;45.194;9.142;2023-12-20T11:14:01;31.05;;;17.58;;
79130;SDS011;72396;45.194;9.142;2023-12-20T11:16:40;28.45;;;16.83;;
79130;SDS011;72396;45.194;9.142;2023-12-20T11:19:06;35.05;;;17.00;;
79130;SDS011;72396;45.194;9.142;2023-12-20T11:21:32;30.02;;;18.23;;
79130;SDS011;72396;45.194;9.142;2023-12-20T11:23:57;28.58;;;15.70;;
79130;SDS011;72396;45.194;9.142;2023-12-20T11:26:27;27.60;;;17.48;;
79130;SDS011;72396;45.194;9.142;2023-12-20T11:32:00;28.58;;;17.33;;
79130;SDS011;72396;45.194;9.142;2023-12-20T11:34:26;30.60;;;16.95;;
79130;SDS011;72396;45.194;9.142;2023-12-20T11:36:57;32.38;;;17.17;;
79130;SDS011;72396;45.194;9.142;2023-12-20T11:39:24;29.00;;;17.38;;
79130;SDS011;72396;45.194;9.142;2023-12-20T11:41:50;28.48;;;17.27;;
79130;SDS011;72396;45.194;9.142;2023-12-20T11:44:17;29.15;;;17.83;;
79130;SDS011;72396;45.194;9.142;2023-12-20T11:46:43;27.90;;;17.88;;
79130;SDS011;72396;45.194;9.142;2023-12-20T11:49:09;28.98;;;18.75;;
79130;SDS011;72396;45.194;9.142;2023-12-20T11:51:34;26.65;;;17.67;;
79130;SDS011;72396;45.194;9.142;2023-12-20T11:54:00;29.77;;;17.83;;
79130;SDS011;72396;45.194;9.142;2023-12-20T11:56:25;27.65;;;17.98;;
79130;SDS011;72396;45.194;9.142;2023-12-20T11:58:50;27.58;;;17.75;;
79130;SDS011;72396;45.194;9.142;2023-12-20T12:01:16;26.67;;;17.35;;
79130;SDS011;72396;45.194;9.142;2023-12-20T12:03:41;27.08;;;17.73;;
79130;SDS011;72396;45.194;9.142;2023-12-20T12:06:08;31.10;;;18.08;;
79130;SDS011;72396;45.194;9.142;2023-12-20T12:08:33;28.58;;;17.77;;
79130;SDS011;72396;45.194;9.142;2023-12-20T12:10:58;30.65;;;18.70;;
79130;SDS011;72396;45.194;9.142;2023-12-20T12:13:24;30.88;;;18.75;;
79130;SDS011;72396;45.194;9.142;2023-12-20T12:15:52;28.65;;;18.55;;
79130;SDS011;72396;45.194;9.142;2023-12-20T12:18:18;29.23;;;17.98;;
79130;SDS011;72396;45.194;9.142;2023-12-20T12:20:44;28.63;;;18.77;;
79130;SDS011;72396;45.194;9.142;2023-12-20T12:23:09;30.08;;;18.30;;
79130;SDS011;72396;45.194;9.142;2023-12-20T12:25:35;29.10;;;18.40;;
79130;SDS011;72396;45.194;9.142;2023-12-20T12:28:02;26.40;;;17.60;;
79130;SDS011;72396;45.194;9.142;2023-12-20T12:30:28;27.75;;;18.48;;
79130;SDS011;72396;45.194;9.142;2023-12-20T12:32:53;32.40;;;18.92;;
79130;SDS011;72396;45.194;9.142;2023-12-20T12:35:19;28.73;;;18.63;;
79130;SDS011;72396;45.194;9.142;2023-12-20T12:37:45;31.83;;;18.67;;
79130;SDS011;72396;45.194;9.142;2023-12-20T12:40:14;30.60;;;18.20;;
79130;SDS011;72396;45.194;9.142;2023-12-20T12:42:41;30.35;;;18.38;;
79130;SDS011;72396;45.194;9.142;2023-12-20T12:45:08;29.98;;;18.60;;
79130;SDS011;72396;45.194;9.142;2023-12-20T12:47:34;30.20;;;18.35;;
79130;SDS011;72396;45.194;9.142;2023-12-20T12:50:00;33.53;;;18.92;;
79130;SDS011;72396;45.194;9.142;2023-12-20T12:52:25;28.02;;;17.98;;
79130;SDS011;72396;45.194;9.142;2023-12-20T12:54:51;31.67;;;18.92;;
79130;SDS011;72396;45.194;9.142;2023-12-20T12:57:17;32.08;;;17.42;;
79130;SDS011;72396;45.194;9.142;2023-12-20T12:59:43;29.23;;;18.75;;
79130;SDS011;72396;45.194;9.142;2023-12-20T13:02:12;32.10;;;18.80;;
79130;SDS011;72396;45.194;9.142;2023-12-20T13:04:38;28.05;;;17.98;;
79130;SDS011;72396;45.194;9.142;2023-12-20T13:07:04;33.42;;;19.13;;
79130;SDS011;72396;45.194;9.142;2023-12-20T13:09:31;30.60;;;18.48;;
79130;SDS011;72396;45.194;9.142;2023-12-20T13:11:56;30.08;;;18.77;;
79130;SDS011;72396;45.194;9.142;2023-12-20T13:14:22;31.90;;;17.55;;
79130;SDS011;72396;45.194;9.142;2023-12-20T13:16:47;29.20;;;18.48;;
79130;SDS011;72396;45.194;9.142;2023-12-20T13:19:13;31.33;;;19.63;;
79130;SDS011;72396;45.194;9.142;2023-12-20T13:21:38;30.67;;;18.90;;
79130;SDS011;72396;45.194;9.142;2023-12-20T13:24:04;33.42;;;19.40;;
79130;SDS011;72396;45.194;9.142;2023-12-20T13:26:30;32.00;;;19.83;;
79130;SDS011;72396;45.194;9.142;2023-12-20T13:28:55;37.00;;;19.75;;
79130;SDS011;72396;45.194;9.142;2023-12-20T13:31:21;32.20;;;19.35;;
79130;SDS011;72396;45.194;9.142;2023-12-20T13:33:46;33.10;;;20.60;;
79130;SDS011;72396;45.194;9.142;2023-12-20T13:36:12;33.70;;;20.48;;
79130;SDS011;72396;45.194;9.142;2023-12-20T13:38:37;33.60;;;20.23;;
79130;SDS011;72396;45.194;9.142;2023-12-20T13:41:03;30.92;;;19.15;;
79130;SDS011;72396;45.194;9.142;2023-12-20T13:43:29;32.92;;;19.65;;
79130;SDS011;72396;45.194;9.142;2023-12-20T13:45:57;39.70;;;21.08;;
79130;SDS011;72396;45.194;9.142;2023-12-20T13:48:22;32.15;;;18.77;;
79130;SDS011;72396;45.194;9.142;2023-12-20T13:50:47;28.35;;;18.48;;
79130;SDS011;72396;45.194;9.142;2023-12-20T13:53:13;28.48;;;18.67;;
79130;SDS011;72396;45.194;9.142;2023-12-20T13:55:39;34.28;;;20.17;;
79130;SDS011;72396;45.194;9.142;2023-12-20T13:58:05;29.20;;;18.95;;
79130;SDS011;72396;45.194;9.142;2023-12-20T14:00:30;34.53;;;20.00;;
79130;SDS011;72396;45.194;9.142;2023-12-20T14:02:56;31.40;;;19.70;;
79130;SDS011;72396;45.194;9.142;2023-12-20T14:05:21;29.42;;;18.55;;
79130;SDS011;72396;45.194;9.142;2023-12-20T14:07:48;31.30;;;19.60;;
79130;SDS011;72396;45.194;9.142;2023-12-20T14:10:13;32.42;;;20.45;;
79130;SDS011;72396;45.194;9.142;2023-12-20T14:12:39;33.05;;;19.58;;
79130;SDS011;72396;45.194;9.142;2023-12-20T14:15:05;32.47;;;19.80;;
79130;SDS011;72396;45.194;9.142;2023-12-20T14:17:36;33.03;;;20.73;;
79130;SDS011;72396;45.194;9.142;2023-12-20T14:20:02;33.67;;;20.25;;
79130;SDS011;72396;45.194;9.142;2023-12-20T14:22:30;31.80;;;19.15;;